createdAt,value
2023-01-28T00:01:49.433Z,22.30
2023-01-28T00:04:53.926Z,22.30
2023-01-28T00:08:00.574Z,23.00
2023-01-28T00:11:11.210Z,20.80
2023-01-28T00:14:21.015Z,20.20
2023-01-28T00:17:37.670Z,20.40
2023-01-28T00:20:42.083Z,21.60
2023-01-28T00:24:09.707Z,21.60
2023-01-28T00:27:20.015Z,20.10
2023-01-28T00:30:24.569Z,20.80
2023-01-28T00:33:37.555Z,17.80
2023-01-28T00:36:56.897Z,16.50
2023-01-28T00:40:00.370Z,18.90
2023-01-28T00:43:05.396Z,18.80
2023-01-28T00:46:11.149Z,18.60
2023-01-28T00:49:16.295Z,19.60
2023-01-28T00:52:18.592Z,18.50
2023-01-28T00:55:23.396Z,17.80
2023-01-28T00:58:29.303Z,20.20
2023-01-28T01:01:31.893Z,18.40
2023-01-28T01:04:40.530Z,16.60
2023-01-28T01:07:45.216Z,19.70
2023-01-28T01:10:52.055Z,20.30
2023-01-28T01:17:42.559Z,17.90
2023-01-28T01:20:45.149Z,19.40
2023-01-28T01:23:49.992Z,18.50
2023-01-28T01:26:55.219Z,17.30
2023-01-28T01:29:58.441Z,17.90
2023-01-28T01:33:01.817Z,17.10
2023-01-28T01:36:04.382Z,18.80
2023-01-28T01:39:13.586Z,20.50
2023-01-28T01:42:16.035Z,19.30
2023-01-28T01:45:18.290Z,19.10
2023-01-28T01:48:27.520Z,17.60
2023-01-28T01:51:34.237Z,16.20
2023-01-28T01:57:53.169Z,19.20
2023-01-28T02:00:59.469Z,17.60
2023-01-28T02:04:26.426Z,19.40
2023-01-28T02:07:31.804Z,18.30
2023-01-28T07:33:07.407Z,19.50
2023-01-28T07:36:11.430Z,18.40
2023-01-28T07:39:20.863Z,18.00
2023-01-28T07:42:32.385Z,19.20
2023-01-28T07:45:54.001Z,19.20
2023-01-28T07:48:59.164Z,17.70
2023-01-28T07:52:06.767Z,21.00
2023-01-28T07:55:14.958Z,17.90
2023-01-28T07:58:19.317Z,20.80
2023-01-28T08:01:21.420Z,18.90
2023-01-28T08:04:26.940Z,20.30
2023-01-28T08:07:32.903Z,19.60
2023-01-28T08:10:41.202Z,19.50
2023-01-28T08:13:46.338Z,21.30
2023-01-28T08:16:51.249Z,20.00
2023-01-28T08:19:53.173Z,19.90
2023-01-28T08:23:16.292Z,21.00
2023-01-28T08:26:21.118Z,20.80
2023-01-28T08:32:39.180Z,19.40
2023-01-28T08:35:43.090Z,20.10
2023-01-28T08:38:48.995Z,17.40
2023-01-28T08:41:52.205Z,20.30
2023-01-28T08:45:00.311Z,18.90
2023-01-28T08:48:06.387Z,20.10
2023-01-28T08:51:11.809Z,19.20
2023-01-28T08:54:14.343Z,18.60
2023-01-28T08:57:36.551Z,17.60
2023-01-28T09:00:44.303Z,16.40
2023-01-28T09:03:50.946Z,18.00
2023-01-28T09:07:12.208Z,20.30
2023-01-28T09:10:20.640Z,20.40
2023-01-28T09:13:29.684Z,22.00
2023-01-28T09:16:41.015Z,21.40
2023-01-28T09:19:49.726Z,19.60
2023-01-28T09:26:30.799Z,19.10
2023-01-28T09:29:46.825Z,19.90
2023-01-28T09:32:53.372Z,18.00
2023-01-28T09:36:24.811Z,19.00
2023-01-28T09:39:41.164Z,20.10
2023-01-28T09:43:15.890Z,18.70
2023-01-28T09:46:21.622Z,17.20
2023-01-28T09:49:48.079Z,19.80
2023-01-28T12:19:51.180Z,15.60
2023-01-28T12:23:18.080Z,13.70
2023-01-28T12:26:41.350Z,16.70
2023-01-28T12:30:04.553Z,15.60
2023-01-28T12:33:56.021Z,17.20
2023-01-28T12:37:15.108Z,15.70
2023-01-28T12:40:40.502Z,14.90
2023-01-28T12:44:12.167Z,16.30
2023-01-28T12:47:27.587Z,16.30
2023-01-28T12:50:41.813Z,16.40
2023-01-28T12:53:50.169Z,16.80
2023-01-28T12:57:23.545Z,16.30
2023-01-28T13:00:34.407Z,17.00
2023-01-28T13:04:05.310Z,16.80
2023-01-28T13:07:18.228Z,18.50
2023-01-28T13:10:44.398Z,18.60
2023-01-28T13:13:47.237Z,18.00
2023-01-28T13:16:54.991Z,17.80
2023-01-28T13:20:13.454Z,16.50
2023-01-28T13:23:45.048Z,17.70
2023-01-28T13:26:55.207Z,18.00
2023-01-28T13:30:27.527Z,17.00
2023-01-28T13:33:39.225Z,17.40
2023-01-28T13:36:49.589Z,17.00
2023-01-28T13:40:15.881Z,16.90
2023-01-28T13:43:27.157Z,17.70
2023-01-28T13:46:34.307Z,16.60
2023-01-28T13:49:49.060Z,17.00
2023-01-28T13:56:31.697Z,16.90
2023-01-28T14:00:18.152Z,17.10
2023-01-28T14:04:01.961Z,18.60
2023-01-28T14:07:12.368Z,16.30
2023-01-28T14:10:33.697Z,17.10
2023-01-28T14:13:48.497Z,17.10
2023-01-28T14:16:57.340Z,15.40
2023-01-28T14:20:01.000Z,15.50
2023-01-28T14:23:07.716Z,17.20
2023-01-28T14:26:22.898Z,17.90
2023-01-28T14:29:59.149Z,18.70
2023-01-28T14:33:09.863Z,20.20
2023-01-28T14:36:14.396Z,24.00
2023-01-28T14:39:26.413Z,20.90
2023-01-28T14:42:42.549Z,22.20
2023-01-28T14:46:43.897Z,21.40
2023-01-28T14:50:31.761Z,19.40
2023-01-28T14:54:07.033Z,21.30
2023-01-28T14:57:44.992Z,21.20
2023-01-28T15:01:24.812Z,20.20
2023-01-28T15:04:41.106Z,19.70
2023-01-28T15:07:49.961Z,23.90
2023-01-28T15:11:14.538Z,22.50
2023-01-28T15:14:29.568Z,22.50
2023-01-28T15:17:46.139Z,22.30
2023-01-28T15:20:54.319Z,23.80
2023-01-28T15:24:06.898Z,21.20
2023-01-28T15:27:28.513Z,22.50
2023-01-28T15:30:34.732Z,24.70
2023-01-28T15:33:41.499Z,30.50
2023-01-28T15:36:49.270Z,42.20
2023-01-28T15:40:08.451Z,39.60
2023-01-28T15:43:29.681Z,40.40
2023-01-28T15:50:28.212Z,39.90
2023-01-28T15:53:42.265Z,39.80
2023-01-28T15:56:48.245Z,39.90
2023-01-28T15:59:50.969Z,38.90
2023-01-28T16:03:06.547Z,36.00
2023-01-28T16:06:24.966Z,41.90
2023-01-28T16:09:34.155Z,41.90
2023-01-28T16:12:38.059Z,41.80
2023-01-28T16:15:56.459Z,41.90
2023-01-28T16:19:07.712Z,41.00
2023-01-28T16:22:21.488Z,40.60
2023-01-28T16:25:37.881Z,42.40
2023-01-28T16:29:18.628Z,41.00
2023-01-28T16:32:39.271Z,39.10
2023-01-28T16:36:04.485Z,40.40
2023-01-28T16:39:18.956Z,36.30
2023-01-28T16:42:21.845Z,35.30
2023-01-28T16:45:27.541Z,37.50
2023-01-28T16:48:36.080Z,36.50
2023-01-28T16:51:45.099Z,33.40
2023-01-28T16:54:48.440Z,38.40
2023-01-28T16:57:54.375Z,36.20
2023-01-28T17:00:58.367Z,38.10
2023-01-28T17:04:11.574Z,37.40
2023-01-28T17:07:17.423Z,33.80
2023-01-28T17:10:21.746Z,36.50
2023-01-28T17:13:25.466Z,32.90
2023-01-28T17:16:39.965Z,27.30
2023-01-28T17:19:42.698Z,27.10
2023-01-28T17:22:47.473Z,23.60
2023-01-28T17:25:52.988Z,25.40
2023-01-28T17:29:00.635Z,24.90
2023-01-28T17:46:39.802Z,21.60
2023-01-28T17:49:47.092Z,19.30
2023-01-28T22:29:05.365Z,9.40
2023-01-28T22:32:29.568Z,9.80
2023-01-28T22:35:39.481Z,9.90
2023-01-28T22:38:55.243Z,9.10
2023-01-28T22:42:04.276Z,10.40
2023-01-28T22:45:10.408Z,10.10
2023-01-28T22:48:21.879Z,9.70
2023-01-28T22:51:31.654Z,9.30
2023-01-28T22:54:33.654Z,9.90
2023-01-28T23:00:54.138Z,9.60
2023-01-28T23:03:59.181Z,11.20
2023-01-28T23:07:05.108Z,10.20
2023-01-28T23:10:11.319Z,10.70
2023-01-28T23:13:22.859Z,11.40
2023-01-28T23:16:50.182Z,11.90
2023-01-28T23:20:12.710Z,10.00
2023-01-28T23:23:35.930Z,11.20
2023-01-28T23:26:40.138Z,10.90
2023-01-28T23:29:45.993Z,11.50
2023-01-28T23:32:49.765Z,13.20
2023-01-28T23:35:57.571Z,12.40
2023-01-28T23:39:00.115Z,11.50
2023-01-28T23:42:23.060Z,11.50
2023-01-28T23:45:29.640Z,14.20
2023-01-28T23:48:33.292Z,13.30
2023-01-28T23:51:35.303Z,14.90
2023-01-28T23:54:40.347Z,16.20
2023-01-28T23:57:43.551Z,15.20
